Time;durP1;ratioP1;P1;durP2;ratioP2;P2;SDS_P1;SDS_P2;PMS_P1;PMS_P2;Temp;Humidity;BMP_temperature;BMP_pressure;BME280_temperature;BME280_humidity;BME280_pressure;Samples;Min_cycle;Max_cycle;Signal;HPM_P1;HPM_P2
2024/02/21 10:41:04;;;;;;;1.95;1.25;;;;;;;21.56;31.31;100679.91;4616881;27;20386;-49
2024/02/21 10:43:18;;;;;;;2.13;1.20;;;;;;;21.54;31.25;100690.94;4607587;27;20543;-49
2024/02/21 10:45:34;;;;;;;1.80;1.15;;;;;;;21.55;31.12;100683.16;4604892;27;21699;-49
2024/02/21 10:47:55;;;;;;;2.20;1.23;;;;;;;21.54;31.54;100684.34;4609099;27;20863;-49
2024/02/21 10:50:11;;;;;;;1.42;1.20;;;;;;;21.53;30.94;100671.19;4608930;27;20826;-50
2024/02/21 10:52:37;;;;;;;1.73;1.27;;;;;;;21.55;31.20;100663.06;4608000;27;20065;-50
2024/02/21 10:55:00;;;;;;;1.48;1.02;;;;;;;21.55;31.14;100663.06;4597673;27;20075;-49
2024/02/21 10:57:13;;;;;;;1.13;0.90;;;;;;;21.56;31.07;100664.72;4608401;27;20899;-50
2024/02/21 10:59:26;;;;;;;1.95;1.05;;;;;;;21.57;31.32;100658.59;4609266;27;20035;-48
2024/02/21 11:01:36;;;;;;;1.45;1.00;;;;;;;21.57;31.42;100649.97;4607719;27;20662;-49
2024/02/21 11:03:50;;;;;;;2.65;1.20;;;;;;;21.58;31.08;100651.63;4609605;27;20052;-52
2024/02/21 11:06:01;;;;;;;1.55;0.90;;;;;;;21.59;31.28;100646.72;4611024;27;20023;-50
2024/02/21 11:08:12;;;;;;;2.20;1.20;;;;;;;21.58;31.22;100640.13;4610836;27;20633;-51
2024/02/21 11:10:24;;;;;;;1.80;0.95;;;;;;;21.59;31.31;100636.09;4608883;27;20915;-50
2024/02/21 11:19:39;;;;;;;2.05;1.02;;;;;;;21.56;31.45;100602.38;4606552;27;20035;-49
2024/02/21 11:21:51;;;;;;;1.48;0.80;;;;;;;21.56;31.25;100596.63;4606648;27;20035;-49
2024/02/21 11:24:02;;;;;;;0.98;0.70;;;;;;;21.57;31.42;100592.53;4606435;27;20039;-50
2024/02/21 11:26:19;;;;;;;0.95;0.80;;;;;;;21.58;31.30;100582.69;4607055;27;20036;-54
2024/02/21 11:28:29;;;;;;;1.58;0.70;;;;;;;21.58;30.97;100582.69;4605416;27;20032;-51
2024/02/21 11:30:40;;;;;;;1.27;0.80;;;;;;;21.60;31.47;100580.28;4607591;27;20036;-50
2024/02/21 11:32:59;;;;;;;1.35;0.80;;;;;;;21.58;31.24;100574.06;4607139;27;20035;-51
2024/02/21 11:35:19;;;;;;;1.05;0.82;;;;;;;21.57;31.73;100575.28;4606501;27;20121;-51
2024/02/21 11:37:34;;;;;;;1.48;0.80;;;;;;;21.58;31.31;100574.06;4607587;27;20151;-52
2024/02/21 11:39:44;;;;;;;1.17;0.90;;;;;;;21.57;31.56;100565.84;4608216;27;20105;-49
2024/02/21 11:42:05;;;;;;;1.67;1.10;;;;;;;21.58;31.94;100550.28;4592568;27;20661;-49
2024/02/21 11:44:16;;;;;;;1.23;0.93;;;;;;;21.57;31.83;100552.31;4593672;27;20050;-49
2024/02/21 11:46:26;;;;;;;2.10;0.90;;;;;;;21.57;31.63;100540.84;4595814;27;20030;-50
2024/02/21 11:48:37;;;;;;;1.92;1.00;;;;;;;21.58;31.96;100539.59;4595136;27;20623;-51
2024/02/21 11:50:57;;;;;;;2.13;0.98;;;;;;;21.59;32.12;100532.69;4592435;27;20029;-49
2024/02/21 11:56:39;;;;;;;1.38;1.00;;;;;;;21.61;32.24;100518.75;4594133;27;20032;-51
2024/02/21 11:58:50;;;;;;;1.45;0.90;;;;;;;21.61;32.43;100513.00;4595345;27;20028;-51
2024/02/21 12:01:02;;;;;;;1.58;0.98;;;;;;;21.61;32.09;100509.31;4596861;27;20020;-51
2024/02/21 12:03:13;;;;;;;1.50;0.88;;;;;;;21.62;32.17;100508.94;4593174;27;20044;-53
2024/02/21 12:05:27;;;;;;;1.35;0.80;;;;;;;21.60;32.52;100511.34;4596717;27;20031;-51
2024/02/21 12:07:40;;;;;;;1.42;1.00;;;;;;;21.59;32.44;100506.81;4592774;27;20039;-50
2024/02/21 12:09:51;;;;;;;1.45;1.00;;;;;;;21.59;32.27;100509.69;4580821;27;20039;-50
2024/02/21 12:12:04;;;;;;;1.60;1.05;;;;;;;21.60;32.32;100514.22;4593745;27;20039;-50
2024/02/21 12:14:19;;;;;;;1.42;0.90;;;;;;;21.60;31.88;100514.22;4593770;27;20024;-50
2024/02/21 12:16:30;;;;;;;2.22;1.30;;;;;;;21.59;32.16;100508.84;4593586;27;20122;-52
2024/02/21 12:18:41;;;;;;;1.45;1.00;;;;;;;21.59;32.44;100506.81;4594357;27;20028;-51
2024/02/21 12:20:52;;;;;;;1.77;1.00;;;;;;;21.60;32.30;100510.50;4594426;27;20032;-54
2024/02/21 12:23:04;;;;;;;1.52;1.00;;;;;;;21.59;32.03;100501.09;4594219;27;20114;-50
2024/02/21 12:25:19;;;;;;;1.50;1.10;;;;;;;21.59;31.91;100483.84;4592396;27;20063;-51
2024/02/21 12:31:03;;;;;;;1.23;0.90;;;;;;;21.58;32.66;100456.31;4596058;27;20062;-50
2024/02/21 12:33:14;;;;;;;1.63;0.90;;;;;;;21.59;32.05;100439.94;4593950;27;20659;-52
2024/02/21 12:35:24;;;;;;;1.95;1.10;;;;;;;21.59;31.89;100442.81;4594583;27;20067;-52
2024/02/21 12:37:35;;;;;;;2.60;1.20;;;;;;;21.58;31.92;100433.34;4593783;27;20039;-50
2024/02/21 12:39:45;;;;;;;3.03;1.05;;;;;;;21.57;31.76;100428.81;4594782;27;20114;-51
2024/02/21 12:41:58;;;;;;;1.48;1.00;;;;;;;21.58;31.60;100426.78;4591730;27;20043;-52
2024/02/21 12:44:10;;;;;;;1.33;0.95;;;;;;;21.56;31.30;100412.81;4595512;27;20611;-51
2024/02/21 12:46:21;;;;;;;1.55;0.80;;;;;;;21.57;31.22;100420.19;4594903;27;20753;-50
2024/02/21 12:48:32;;;;;;;2.05;1.00;;;;;;;21.57;31.15;100414.47;4593478;27;20142;-50
2024/02/21 12:54:34;;;;;;;1.77;1.00;;;;;;;21.57;31.71;100408.72;4592390;27;20814;-50
2024/02/21 12:56:44;;;;;;;2.30;1.00;;;;;;;21.56;31.13;100418.56;4593328;27;20576;-51
2024/02/21 12:58:54;;;;;;;2.28;1.00;;;;;;;21.56;31.06;100424.28;4590478;27;20031;-51
2024/02/21 13:01:05;;;;;;;2.17;1.10;;;;;;;21.56;31.27;100415.69;4593796;27;20119;-51
2024/02/21 13:03:15;;;;;;;1.42;0.80;;;;;;;21.57;31.13;100405.84;4596437;27;20036;-50
2024/02/21 13:05:26;;;;;;;1.02;0.80;;;;;;;21.58;31.68;100381.66;4597318;27;20019;-50
2024/02/21 13:07:37;;;;;;;1.77;0.90;;;;;;;21.57;31.30;100371.38;4594135;27;20154;-50
2024/02/21 13:09:47;;;;;;;1.10;0.80;;;;;;;21.57;31.42;100364.78;4593086;27;20035;-50
2024/02/21 13:11:58;;;;;;;1.73;0.95;;;;;;;21.58;31.38;100349.25;4594486;27;20539;-52
2024/02/21 13:18:02;;;;;;;0.98;0.80;;;;;;;21.57;31.81;100310.22;4594159;27;20580;-52
2024/02/21 13:20:13;;;;;;;1.38;0.68;;;;;;;21.57;31.81;100316.81;4591951;27;20619;-51
2024/02/21 13:22:26;;;;;;;1.27;0.80;;;;;;;21.57;32.05;100330.34;4594952;27;20044;-52
2024/02/21 13:24:36;;;;;;;1.95;1.00;;;;;;;21.56;31.71;100323.78;4591370;27;20584;-52
2024/02/21 13:26:46;;;;;;;1.73;0.80;;;;;;;21.57;31.67;100319.69;4591620;27;20043;-50
2024/02/21 13:28:57;;;;;;;2.40;0.98;;;;;;;21.57;31.90;100285.22;4592487;27;20035;-51
2024/02/21 13:31:08;;;;;;;1.33;0.80;;;;;;;21.58;31.79;100283.19;4593057;27;20035;-50
2024/02/21 13:33:18;;;;;;;1.55;0.98;;;;;;;21.57;32.09;100276.59;4594286;27;20036;-50
2024/02/21 13:35:29;;;;;;;2.08;0.90;;;;;;;21.58;31.97;100284.00;4595534;27;20035;-51
2024/02/21 13:41:18;;;;;;;2.05;0.80;;;;;;;21.58;31.21;100229.44;4593885;27;20773;-52
2024/02/21 13:43:30;;;;;;;0.80;0.70;;;;;;;21.58;31.53;100194.16;4592369;27;20601;-51
2024/02/21 13:45:56;;;;;;;2.42;0.82;;;;;;;21.56;31.27;100188.81;4591233;27;20034;-50
2024/02/21 13:48:10;;;;;;;1.48;0.88;;;;;;;21.58;31.62;100208.53;4592391;27;20028;-50
2024/02/21 13:50:23;;;;;;;1.67;1.08;;;;;;;21.58;31.06;100185.53;4593116;27;20035;-50
2024/02/21 13:52:39;;;;;;;1.45;0.80;;;;;;;21.57;31.66;100178.97;4593996;27;20039;-51
2024/02/21 13:54:49;;;;;;;1.85;0.82;;;;;;;21.57;31.46;100167.47;4593792;27;20092;-52
2024/02/21 13:57:00;;;;;;;1.73;1.00;;;;;;;21.56;31.45;100171.56;4596346;27;20023;-51
2024/02/21 13:59:16;;;;;;;2.63;1.10;;;;;;;21.57;31.58;100160.88;4596817;27;20134;-49
2024/02/21 14:01:28;;;;;;;1.52;0.85;;;;;;;21.57;31.12;100170.34;4592440;27;20541;-50
2024/02/21 14:03:38;;;;;;;2.22;1.08;;;;;;;21.57;30.94;100158.00;4592241;27;20036;-50
2024/02/21 14:05:48;;;;;;;1.42;1.00;;;;;;;21.57;31.53;100155.97;4592422;27;20024;-51
2024/02/21 14:07:59;;;;;;;2.10;1.00;;;;;;;21.58;31.03;100146.16;4595024;27;20040;-50
2024/02/21 14:10:09;;;;;;;1.48;0.80;;;;;;;21.60;31.19;100137.13;4591584;27;20024;-52
2024/02/21 14:12:21;;;;;;;1.73;0.80;;;;;;;21.62;30.88;100135.56;4590891;27;20036;-53
2024/02/21 14:14:32;;;;;;;1.55;0.80;;;;;;;21.63;31.13;100131.47;4590057;27;20035;-50
2024/02/21 14:16:43;;;;;;;1.35;0.70;;;;;;;21.63;31.26;100125.72;4595283;27;20040;-52
2024/02/21 14:18:56;;;;;;;1.58;0.80;;;;;;;21.65;31.28;100122.47;4597364;27;20016;-54
2024/02/21 14:21:07;;;;;;;2.13;0.88;;;;;;;21.66;31.32;100116.31;4576052;27;20248;-52
2024/02/21 14:23:17;;;;;;;1.55;0.93;;;;;;;21.64;31.32;100107.28;4592141;27;20162;-50
2024/02/21 14:25:28;;;;;;;2.10;1.00;;;;;;;21.66;31.56;100096.22;4595960;27;20038;-50
2024/02/21 14:27:38;;;;;;;1.63;0.90;;;;;;;21.66;31.27;100096.22;4593646;27;20031;-53
2024/02/21 14:29:48;;;;;;;1.83;0.95;;;;;;;21.66;30.98;100086.78;4592917;27;20035;-50
2024/02/21 14:31:59;;;;;;;1.30;0.88;;;;;;;21.65;31.59;100088.00;4593307;27;20015;-51
2024/02/21 14:34:09;;;;;;;1.95;0.80;;;;;;;21.65;31.24;100082.25;4593547;27;20031;-53
2024/02/21 14:36:20;;;;;;;1.60;0.90;;;;;;;21.64;31.01;100081.44;4592352;27;20020;-50
2024/02/21 14:38:30;;;;;;;1.25;0.80;;;;;;;21.64;31.43;100081.44;4591482;27;21034;-54
2024/02/21 14:40:41;;;;;;;1.23;0.80;;;;;;;21.65;31.01;100070.75;4592821;27;20047;-50
2024/02/21 14:42:52;;;;;;;2.45;0.90;;;;;;;21.64;31.37;100075.69;4593626;27;20046;-52
2024/02/21 14:48:36;;;;;;;1.75;0.90;;;;;;;21.64;30.90;100075.69;4591547;27;20039;-51
2024/02/21 14:50:47;;;;;;;1.90;0.80;;;;;;;21.63;30.74;100051.03;4591614;27;20031;-52
2024/02/21 14:52:57;;;;;;;0.90;0.70;;;;;;;21.64;30.73;100046.13;4591661;27;20603;-52
2024/02/21 14:55:08;;;;;;;1.50;0.98;;;;;;;21.64;30.64;100044.09;4591059;27;20086;-52
2024/02/21 14:57:20;;;;;;;1.27;0.90;;;;;;;21.64;30.98;100026.88;4589744;27;20038;-50
2024/02/21 14:59:30;;;;;;;1.48;0.80;;;;;;;21.65;31.33;100031.38;4592510;27;20028;-51
2024/02/21 15:01:40;;;;;;;1.30;0.80;;;;;;;21.63;31.21;100030.94;4591630;27;20040;-50
2024/02/21 15:03:51;;;;;;;1.70;0.93;;;;;;;21.64;31.05;100023.16;4594314;27;20036;-48
2024/02/21 15:06:02;;;;;;;1.77;1.00;;;;;;;21.64;31.29;100017.41;4592486;27;20397;-50
2024/02/21 15:11:45;;;;;;;4.78;3.50;;;;;;;21.65;31.26;99990.34;4592465;27;21587;-50
2024/02/21 15:13:55;;;;;;;2.20;1.20;;;;;;;21.91;43.88;99993.22;4592980;27;20039;-49
2024/02/21 15:16:06;;;;;;;1.50;1.10;;;;;;;22.35;43.89;100013.44;4589943;27;20044;-50
2024/02/21 15:18:17;;;;;;;2.30;1.10;;;;;;;22.43;43.02;100003.69;4596402;27;20047;-50
2024/02/21 15:20:27;;;;;;;5.10;4.22;;;;;;;22.07;31.45;100003.25;4595337;27;20117;-51
2024/02/21 15:22:38;;;;;;;4.22;2.92;;;;;;;21.93;31.04;99991.59;4599129;27;20039;-50
2024/02/21 15:24:49;;;;;;;3.00;2.30;;;;;;;21.84;30.53;99970.94;4596084;27;20035;-51
2024/02/21 15:26:59;;;;;;;2.20;1.75;;;;;;;21.79;30.87;99968.41;4595919;27;20085;-49
2024/02/21 15:29:10;;;;;;;2.30;1.30;;;;;;;21.76;31.75;99968.38;4594324;27;20108;-50
2024/02/21 15:31:22;;;;;;;1.73;1.20;;;;;;;21.73;31.56;99969.97;4593457;27;20695;-51
2024/02/21 15:37:05;;;;;;;2.50;1.30;;;;;;;21.69;30.30;99951.84;4595339;27;20035;-51
2024/02/21 15:39:15;;;;;;;2.42;1.20;;;;;;;21.69;30.84;99965.38;4595584;27;20383;-49
2024/02/21 15:41:26;;;;;;;1.83;1.00;;;;;;;21.68;31.17;99960.84;4597090;27;20026;-50
2024/02/21 15:43:38;;;;;;;1.40;1.00;;;;;;;21.67;30.58;99962.91;4594686;27;20036;-50
2024/02/21 15:45:48;;;;;;;1.52;1.00;;;;;;;21.67;30.57;99948.53;4595366;27;20157;-50
2024/02/21 15:47:58;;;;;;;1.85;1.10;;;;;;;21.67;30.54;99945.66;4594208;27;20110;-50
2024/02/21 15:50:10;;;;;;;2.78;1.20;;;;;;;21.66;30.85;99935.38;4596787;27;20063;-50
2024/02/21 15:52:21;;;;;;;1.52;1.08;;;;;;;21.65;30.70;99933.75;4595431;27;20050;-50
2024/02/21 15:54:31;;;;;;;1.88;0.95;;;;;;;21.65;30.41;99921.41;4593938;27;20043;-50
2024/02/21 15:56:41;;;;;;;2.70;1.20;;;;;;;21.65;30.35;99916.50;4594782;27;20071;-51
2024/02/21 15:58:52;;;;;;;3.28;1.20;;;;;;;21.65;30.24;99913.63;4595468;27;20024;-50
2024/02/21 16:01:02;;;;;;;2.80;1.20;;;;;;;21.65;30.10;99913.63;4594998;27;20043;-50
2024/02/21 16:03:13;;;;;;;1.65;1.20;;;;;;;21.65;30.26;99899.28;4594993;27;20020;-50
2024/02/21 16:05:23;;;;;;;1.60;1.10;;;;;;;21.65;30.65;99898.44;4595922;27;20039;-50
2024/02/21 16:07:34;;;;;;;1.73;1.20;;;;;;;21.64;31.06;99900.50;4594807;27;20127;-49
2024/02/21 16:09:46;;;;;;;2.67;1.92;;;;;;;21.64;30.75;99900.50;4593216;27;20078;-49
2024/02/21 16:11:57;;;;;;;3.85;2.10;;;;;;;21.63;30.65;99890.22;4598972;27;20038;-49
2024/02/21 16:17:40;;;;;;;3.30;2.00;;;;;;;21.63;30.71;99872.97;4595765;27;20963;-51
2024/02/21 16:19:50;;;;;;;2.65;1.55;;;;;;;21.64;30.58;99871.78;4592757;27;20142;-50
2024/02/21 16:22:04;;;;;;;3.40;1.42;;;;;;;21.63;30.21;99866.41;4594469;27;20040;-50
2024/02/21 16:24:15;;;;;;;1.70;1.30;;;;;;;21.62;30.44;99877.09;4595022;27;20105;-49
2024/02/21 16:26:25;;;;;;;1.92;1.10;;;;;;;21.63;30.12;99872.16;4594263;27;20040;-49
2024/02/21 16:28:35;;;;;;;2.08;1.25;;;;;;;21.61;29.80;99866.00;4593705;27;21879;-50
2024/02/21 16:30:46;;;;;;;2.38;1.25;;;;;;;21.63;29.77;99869.28;4594508;27;20130;-50
2024/02/21 16:32:56;;;;;;;2.03;1.10;;;;;;;21.62;29.84;99862.72;4595085;27;20039;-53
2024/02/21 16:35:07;;;;;;;1.88;1.10;;;;;;;21.62;29.60;99865.59;4595418;27;20106;-54
2024/02/21 16:37:17;;;;;;;1.83;1.05;;;;;;;21.61;29.65;99861.06;4593902;27;20106;-51
2024/02/21 16:43:02;;;;;;;1.83;0.70;;;;;;;21.61;30.07;99843.81;4594482;27;20895;-50
2024/02/21 16:45:13;;;;;;;1.20;1.00;;;;;;;21.61;29.78;99849.56;4607634;27;20132;-51
2024/02/21 16:47:24;;;;;;;1.52;0.90;;;;;;;21.61;30.09;99846.69;4597374;27;20154;-50
2024/02/21 16:49:35;;;;;;;1.60;0.90;;;;;;;21.60;29.61;99849.97;4596723;27;20924;-51
2024/02/21 16:51:45;;;;;;;1.35;0.90;;;;;;;21.61;29.37;99851.63;4593142;27;20124;-50
2024/02/21 16:53:56;;;;;;;1.70;0.90;;;;;;;21.60;29.66;99833.56;4597516;27;20030;-50
2024/02/21 16:56:06;;;;;;;1.15;0.98;;;;;;;21.61;29.57;99834.41;4595111;27;20040;-50
2024/02/21 16:58:17;;;;;;;1.25;0.90;;;;;;;21.60;29.38;99844.22;4595392;27;20063;-51
2024/02/21 17:00:27;;;;;;;1.55;1.00;;;;;;;21.60;29.26;99844.22;4598022;27;20047;-51
2024/02/21 17:02:39;;;;;;;1.70;1.08;;;;;;;21.60;28.76;99832.72;4595402;27;22827;-51
2024/02/21 17:04:51;;;;;;;1.75;1.00;;;;;;;21.60;28.68;99839.31;4596460;27;20607;-51
2024/02/21 17:07:02;;;;;;;2.22;1.00;;;;;;;21.59;28.48;99837.66;4594230;27;20042;-49
2024/02/21 17:09:13;;;;;;;1.85;1.00;;;;;;;21.58;28.84;99830.25;4595326;27;20050;-50
2024/02/21 17:11:23;;;;;;;1.45;0.75;;;;;;;21.59;28.58;99831.94;4595779;27;20889;-49
2024/02/21 17:13:33;;;;;;;2.13;0.90;;;;;;;21.59;28.60;99826.19;4596042;27;24299;-50
2024/02/21 17:15:44;;;;;;;1.40;0.90;;;;;;;21.57;28.22;99817.13;4596465;27;20078;-50
2024/02/21 17:17:54;;;;;;;1.75;0.80;;;;;;;21.58;28.03;99830.25;4594789;27;20090;-50
2024/02/21 17:20:08;;;;;;;1.30;0.90;;;;;;;21.58;27.99;99818.75;4595616;27;20032;-49
2024/02/21 17:22:18;;;;;;;1.35;0.88;;;;;;;21.57;27.89;99820.00;4596383;27;20081;-50
2024/02/21 17:24:29;;;;;;;1.92;0.82;;;;;;;21.58;27.95;99823.69;4595477;27;20026;-50
2024/02/21 17:26:40;;;;;;;1.45;0.77;;;;;;;21.57;27.53;99817.13;4595689;27;20031;-49
2024/02/21 17:28:54;;;;;;;1.25;1.00;;;;;;;21.57;27.66;99820.00;4595471;27;20031;-49
2024/02/21 17:31:04;;;;;;;1.02;0.60;;;;;;;21.57;27.48;99811.38;4595088;27;20053;-50
2024/02/21 17:33:15;;;;;;;1.25;0.65;;;;;;;21.58;27.61;99813.03;4594195;27;20499;-49
2024/02/21 17:35:26;;;;;;;0.95;0.60;;;;;;;21.58;27.53;99806.47;4595513;27;20501;-49
2024/02/21 17:37:36;;;;;;;0.63;0.57;;;;;;;21.57;27.56;99817.13;4596448;27;20431;-50
2024/02/21 17:39:46;;;;;;;0.90;0.60;;;;;;;21.57;26.91;99807.66;4595966;27;20050;-50
2024/02/21 17:41:57;;;;;;;1.23;0.60;;;;;;;21.57;27.03;99805.63;4594232;27;20066;-50
2024/02/21 17:44:07;;;;;;;1.27;0.73;;;;;;;21.57;26.88;99788.41;4595834;27;20039;-50
2024/02/21 17:46:19;;;;;;;1.98;0.70;;;;;;;21.57;27.06;99785.53;4597719;27;20032;-52
2024/02/21 17:48:29;;;;;;;0.57;0.55;;;;;;;21.57;26.68;99782.66;4597408;27;20106;-50
2024/02/21 17:50:40;;;;;;;1.15;0.60;;;;;;;21.57;26.37;99788.41;4595525;27;20058;-50
2024/02/21 17:52:51;;;;;;;0.90;0.70;;;;;;;21.57;26.76;99778.97;4594426;27;20027;-50
2024/02/21 17:55:04;;;;;;;1.80;0.70;;;;;;;21.57;26.30;99779.78;4595892;27;20060;-50
2024/02/21 17:57:15;;;;;;;1.15;0.68;;;;;;;21.57;26.54;99761.72;4597763;27;20077;-50
2024/02/21 17:59:25;;;;;;;0.90;0.60;;;;;;;21.57;26.62;99768.31;4595168;27;20546;-51
2024/02/21 18:01:35;;;;;;;1.02;0.60;;;;;;;21.56;26.31;99763.78;4593059;27;20036;-53
2024/02/21 18:03:46;;;;;;;0.90;0.60;;;;;;;21.56;26.36;99758.06;4598836;27;20055;-49
2024/02/21 18:06:03;;;;;;;1.23;0.60;;;;;;;21.57;26.05;99748.19;4595675;27;20493;-50
2024/02/21 18:08:13;;;;;;;0.55;0.43;;;;;;;21.57;26.17;99735.88;4593978;27;20588;-50
2024/02/21 18:10:24;;;;;;;0.90;0.70;;;;;;;21.57;26.49;99733.00;4594155;27;20046;-49
2024/02/21 18:12:34;;;;;;;1.17;0.60;;;;;;;21.56;26.45;99723.59;4595511;27;20060;-51
2024/02/21 18:14:45;;;;;;;1.08;0.50;;;;;;;21.55;26.47;99715.38;4594527;27;20122;-49
2024/02/21 18:16:55;;;;;;;1.20;0.68;;;;;;;21.58;26.45;99711.72;4587164;27;20036;-51
2024/02/21 18:19:07;;;;;;;0.93;0.50;;;;;;;21.57;26.97;99707.16;4597692;27;20020;-50
2024/02/21 18:21:17;;;;;;;1.48;0.65;;;;;;;21.56;26.95;99694.88;4593534;27;20036;-50
2024/02/21 18:23:30;;;;;;;0.82;0.60;;;;;;;21.56;26.92;99677.66;4594868;27;20090;-50
2024/02/21 18:25:41;;;;;;;1.35;0.60;;;;;;;21.57;26.92;99672.72;4593063;27;20117;-51
2024/02/21 18:27:52;;;;;;;1.42;0.60;;;;;;;21.56;26.57;99666.16;4592696;27;20089;-51
2024/02/21 18:30:02;;;;;;;1.23;0.70;;;;;;;21.55;26.52;99661.63;4593903;27;20040;-50
2024/02/21 18:32:13;;;;;;;1.27;0.73;;;;;;;21.56;26.60;99671.91;4594477;27;20036;-49
2024/02/21 18:34:23;;;;;;;0.63;0.50;;;;;;;21.57;26.56;99664.94;4592749;27;20020;-50
2024/02/21 18:36:33;;;;;;;1.45;0.65;;;;;;;21.56;26.52;99660.41;4581471;27;20048;-50
2024/02/21 18:38:44;;;;;;;1.17;0.73;;;;;;;21.56;26.45;99657.56;4596565;27;20036;-49
2024/02/21 18:40:55;;;;;;;1.17;0.80;;;;;;;21.56;26.42;99648.94;4610514;27;20577;-50
2024/02/21 18:43:05;;;;;;;1.20;0.80;;;;;;;21.56;26.96;99648.94;4595642;27;20027;-50
2024/02/21 18:45:16;;;;;;;1.48;0.70;;;;;;;21.56;26.72;99646.06;4597236;27;20039;-49
2024/02/21 18:47:26;;;;;;;1.65;0.73;;;;;;;21.55;26.70;99641.53;4595719;27;20503;-51
2024/02/21 18:49:37;;;;;;;1.33;0.70;;;;;;;21.56;26.79;99637.44;4591879;27;20039;-49
2024/02/21 18:51:47;;;;;;;1.02;0.80;;;;;;;21.54;26.94;99630.44;4597008;27;20070;-49
2024/02/21 18:53:58;;;;;;;1.10;0.80;;;;;;;21.56;27.01;99633.75;4596694;27;20039;-48
2024/02/21 18:56:10;;;;;;;1.05;0.70;;;;;;;21.56;26.70;99620.22;4598664;27;20031;-49
2024/02/21 18:58:20;;;;;;;1.02;0.70;;;;;;;21.56;27.11;99622.25;4597687;27;20044;-49
2024/02/21 19:00:31;;;;;;;1.35;0.82;;;;;;;21.55;27.08;99612.81;4599173;27;20036;-49
2024/02/21 19:02:41;;;;;;;1.25;0.80;;;;;;;21.55;27.32;99609.13;4598349;27;20085;-51
2024/02/21 19:04:52;;;;;;;1.20;0.80;;;;;;;21.56;27.25;99603.00;4599007;27;20041;-49
2024/02/21 19:07:02;;;;;;;1.13;0.70;;;;;;;21.56;27.43;99603.00;4600310;27;20032;-49
2024/02/21 19:09:12;;;;;;;1.00;0.77;;;;;;;21.55;28.05;99601.31;4598445;27;20162;-52
2024/02/21 19:11:23;;;;;;;1.42;0.85;;;;;;;21.55;27.70;99595.59;4595276;27;20039;-49
2024/02/21 19:13:34;;;;;;;1.20;0.88;;;;;;;21.53;28.01;99592.28;4600972;27;20611;-50
2024/02/21 19:15:45;;;;;;;0.88;0.77;;;;;;;21.57;28.46;99589.44;4597712;27;20031;-49
2024/02/21 19:17:55;;;;;;;1.35;0.90;;;;;;;21.56;28.54;99591.50;4599188;27;20130;-49
2024/02/21 19:20:09;;;;;;;1.00;0.82;;;;;;;21.55;28.53;99578.34;4598651;27;20043;-50
2024/02/21 19:22:21;;;;;;;1.65;0.75;;;;;;;21.55;28.81;99575.47;4598005;27;20100;-50
2024/02/21 19:24:31;;;;;;;1.58;0.90;;;;;;;21.55;29.48;99571.81;4598810;27;20027;-50
2024/02/21 19:26:41;;;;;;;1.02;0.80;;;;;;;21.54;29.84;99559.50;4597382;27;20036;-50
2024/02/21 19:28:53;;;;;;;1.30;0.80;;;;;;;21.55;29.83;99561.13;4598487;27;20046;-50
2024/02/21 19:31:04;;;;;;;1.30;0.85;;;;;;;21.55;30.09;99560.31;4597127;27;20016;-49
2024/02/21 19:33:15;;;;;;;0.90;0.70;;;;;;;21.54;30.31;99550.03;4598334;27;20741;-49
2024/02/21 19:35:26;;;;;;;0.80;0.75;;;;;;;21.54;30.22;99535.69;4598200;27;20044;-49
2024/02/21 19:37:39;;;;;;;1.00;0.77;;;;;;;21.53;30.48;99523.38;4596141;27;20926;-49
2024/02/21 19:39:49;;;;;;;0.80;0.60;;;;;;;21.52;30.79;99521.72;4596356;27;20036;-49
2024/02/21 19:41:59;;;;;;;0.88;0.80;;;;;;;21.53;31.07;99517.63;4596601;27;20040;-50
2024/02/21 19:44:11;;;;;;;1.55;0.70;;;;;;;21.53;31.09;99511.06;4596894;27;20058;-53
2024/02/21 19:46:23;;;;;;;0.93;0.60;;;;;;;21.51;31.28;99502.88;4596896;27;20047;-49
2024/02/21 19:48:33;;;;;;;1.08;0.70;;;;;;;21.53;31.17;99506.13;4600907;27;20023;-50
2024/02/21 19:50:44;;;;;;;1.38;0.70;;;;;;;21.52;31.23;99495.88;4596764;27;20527;-51
2024/02/21 19:52:56;;;;;;;0.80;0.68;;;;;;;21.52;31.61;99498.75;4598164;27;20031;-50
2024/02/21 19:55:06;;;;;;;0.73;0.57;;;;;;;21.52;31.80;99498.75;4597106;27;20622;-49
2024/02/21 19:57:17;;;;;;;0.95;0.70;;;;;;;21.52;31.82;99493.03;4595764;27;20036;-52
2024/02/21 19:59:27;;;;;;;1.48;0.60;;;;;;;21.52;31.31;99493.03;4597127;27;20389;-50
2024/02/21 20:01:41;;;;;;;1.15;0.57;;;;;;;21.52;32.03;99463.47;4596307;27;20047;-49
2024/02/21 20:03:51;;;;;;;1.02;0.60;;;;;;;21.51;31.69;99456.94;4596654;27;20043;-52
2024/02/21 20:06:03;;;;;;;1.17;0.65;;;;;;;21.52;31.57;99449.94;4599939;27;20760;-50
2024/02/21 20:08:13;;;;;;;1.02;0.60;;;;;;;21.52;31.63;99457.72;4599137;27;20055;-49
2024/02/21 20:10:24;;;;;;;0.60;0.60;;;;;;;21.52;32.10;99441.34;4600148;27;21182;-51
2024/02/21 20:12:34;;;;;;;0.98;0.70;;;;;;;21.52;31.86;99435.59;4595660;27;20456;-49
2024/02/21 20:14:45;;;;;;;0.50;0.50;;;;;;;21.51;31.63;99422.47;4595940;27;20047;-51
2024/02/21 20:16:55;;;;;;;0.60;0.40;;;;;;;21.51;31.65;99413.88;4594775;27;20087;-49
2024/02/21 20:19:05;;;;;;;0.40;0.40;;;;;;;21.52;32.35;99417.53;4595830;27;20055;-50
2024/02/21 20:21:16;;;;;;;0.50;0.50;;;;;;;21.51;32.26;99405.25;4600148;27;20035;-50
2024/02/21 20:23:26;;;;;;;1.30;0.50;;;;;;;21.51;32.01;99402.38;4601032;27;20040;-50
2024/02/21 20:25:37;;;;;;;0.50;0.50;;;;;;;21.51;32.07;99399.50;4596176;27;20118;-49
2024/02/21 20:27:48;;;;;;;0.68;0.40;;;;;;;21.51;31.89;99405.25;4582591;27;20401;-51
2024/02/21 20:29:58;;;;;;;0.73;0.50;;;;;;;21.50;31.28;99392.09;4599980;27;20048;-51
2024/02/21 20:32:08;;;;;;;1.33;0.60;;;;;;;21.50;31.55;99391.28;4592527;27;20031;-49
2024/02/21 20:34:19;;;;;;;0.80;0.50;;;;;;;21.50;31.07;99394.97;4598171;27;20031;-51
2024/02/21 20:36:29;;;;;;;0.50;0.50;;;;;;;21.50;31.65;99380.63;4594123;27;20798;-49
2024/02/21 20:38:40;;;;;;;0.50;0.40;;;;;;;21.50;31.54;99383.47;4595834;27;20911;-49
2024/02/21 20:40:50;;;;;;;0.93;0.60;;;;;;;21.50;31.44;99380.63;4598799;27;20147;-51
2024/02/21 20:43:03;;;;;;;1.00;0.60;;;;;;;21.50;31.28;99382.69;4595106;27;20512;-49
2024/02/21 20:45:14;;;;;;;0.52;0.50;;;;;;;21.49;31.31;99378.97;4597302;27;20032;-51
2024/02/21 20:47:25;;;;;;;0.50;0.50;;;;;;;21.49;31.31;99372.41;4595570;27;20069;-52
2024/02/21 20:49:35;;;;;;;1.08;0.60;;;;;;;21.49;31.02;99381.03;4594603;27;20118;-51
2024/02/21 20:51:45;;;;;;;0.93;0.70;;;;;;;21.48;31.09;99371.59;4595646;27;20034;-50
2024/02/21 20:53:56;;;;;;;1.27;0.70;;;;;;;21.45;30.91;99366.66;4597318;27;20097;-50
2024/02/21 20:56:08;;;;;;;0.77;0.77;;;;;;;21.40;30.67;99363.34;4596902;27;20174;-52
2024/02/21 20:58:19;;;;;;;0.93;0.70;;;;;;;21.38;30.51;99351.44;4598324;27;20035;-49
2024/02/21 21:00:29;;;;;;;0.98;0.60;;;;;;;21.36;30.64;99351.03;4596600;27;20028;-52
2024/02/21 21:02:40;;;;;;;0.57;0.55;;;;;;;21.34;30.93;99348.56;4597235;27;20031;-50
2024/02/21 21:04:51;;;;;;;0.70;0.60;;;;;;;21.34;30.62;99347.75;4595758;27;20200;-49
2024/02/21 21:07:01;;;;;;;0.80;0.70;;;;;;;21.33;30.45;99346.06;4598634;27;20645;-50
2024/02/21 21:09:12;;;;;;;1.17;0.60;;;;;;;21.33;31.18;99328.84;4593507;27;20101;-50
2024/02/21 21:11:22;;;;;;;0.80;0.70;;;;;;;21.32;30.82;99330.09;4595770;27;20138;-50
2024/02/21 21:13:33;;;;;;;0.60;0.60;;;;;;;21.32;31.12;99324.34;4592890;27;20044;-50
2024/02/21 21:15:44;;;;;;;0.93;0.63;;;;;;;21.29;31.05;99323.13;4595545;27;20027;-50
2024/02/21 21:17:54;;;;;;;0.77;0.60;;;;;;;21.31;31.02;99319.84;4595268;27;20040;-50
2024/02/21 21:20:11;;;;;;;0.95;0.50;;;;;;;21.30;31.48;99324.75;4594227;27;20493;-50
2024/02/21 21:22:22;;;;;;;1.20;0.70;;;;;;;21.31;30.95;99308.38;4592913;27;20477;-49
2024/02/21 21:24:33;;;;;;;1.10;0.75;;;;;;;21.30;30.90;99313.28;4595427;27;20035;-49
2024/02/21 21:26:44;;;;;;;0.75;0.70;;;;;;;21.29;31.00;99297.28;4596430;27;20086;-50
2024/02/21 21:28:56;;;;;;;1.38;0.63;;;;;;;21.28;31.05;99289.88;4596229;27;20161;-50
2024/02/21 21:31:07;;;;;;;0.85;0.60;;;;;;;21.28;31.64;99284.16;4594895;27;20043;-50
2024/02/21 21:33:18;;;;;;;1.10;0.60;;;;;;;21.29;31.54;99282.13;4599015;27;20036;-50
2024/02/21 21:35:28;;;;;;;0.90;0.70;;;;;;;21.30;31.53;99281.72;4595530;27;20088;-48
2024/02/21 21:37:42;;;;;;;0.75;0.55;;;;;;;21.28;31.50;99274.75;4595443;27;20043;-50